sensor_id;sensor_type;location;lat;lon;timestamp;pressure;altitude;pressure_sealevel;temperature;humidity
46430;BME280;32131;53.454;-6.180;2023-01-29T00:01:58;102948.06;;;5.40;100.00
46430;BME280;32131;53.454;-6.180;2023-01-29T00:04:26;102957.44;;;5.40;100.00
46430;BME280;32131;53.454;-6.180;2023-01-29T00:06:55;102957.53;;;5.41;100.00
46430;BME280;32131;53.454;-6.180;2023-01-29T00:09:32;102951.53;;;5.41;100.00
46430;BME280;32131;53.454;-6.180;2023-01-29T00:12:00;102939.50;;;5.40;100.00
46430;BME280;32131;53.454;-6.180;2023-01-29T00:14:29;102944.63;;;5.40;100.00
46430;BME280;32131;53.454;-6.180;2023-01-29T00:16:57;102954.75;;;5.38;100.00
46430;BME280;32131;53.454;-6.180;2023-01-29T00:19:25;102946.97;;;5.37;100.00
46430;BME280;32131;53.454;-6.180;2023-01-29T00:21:54;102945.94;;;5.34;100.00
46430;BME280;32131;53.454;-6.180;2023-01-29T00:24:22;102944.97;;;5.32;100.00
46430;BME280;32131;53.454;-6.180;2023-01-29T00:26:50;102947.53;;;5.32;100.00
46430;BME280;32131;53.454;-6.180;2023-01-29T00:29:19;102950.88;;;5.31;100.00
46430;BME280;32131;53.454;-6.180;2023-01-29T00:31:47;102954.22;;;5.30;100.00
46430;BME280;32131;53.454;-6.180;2023-01-29T00:34:16;102954.22;;;5.30;100.00
46430;BME280;32131;53.454;-6.180;2023-01-29T00:36:44;102954.22;;;5.30;100.00
46430;BME280;32131;53.454;-6.180;2023-01-29T00:39:13;102953.44;;;5.31;100.00
46430;BME280;32131;53.454;-6.180;2023-01-29T00:41:41;102945.75;;;5.31;100.00
46430;BME280;32131;53.454;-6.180;2023-01-29T00:44:27;102945.75;;;5.31;100.00
46430;BME280;32131;53.454;-6.180;2023-01-29T00:47:12;102944.75;;;5.29;100.00
46430;BME280;32131;53.454;-6.180;2023-01-29T00:49:59;102950.75;;;5.30;100.00
46430;BME280;32131;53.454;-6.180;2023-01-29T00:52:28;102955.00;;;5.29;100.00
46430;BME280;32131;53.454;-6.180;2023-01-29T00:54:59;102951.66;;;5.30;100.00
46430;BME280;32131;53.454;-6.180;2023-01-29T00:57:29;102937.06;;;5.29;100.00
46430;BME280;32131;53.454;-6.180;2023-01-29T00:59:57;102931.94;;;5.29;100.00
46430;BME280;32131;53.454;-6.180;2023-01-29T01:02:26;102932.59;;;5.27;100.00
46430;BME280;32131;53.454;-6.180;2023-01-29T01:05:14;102933.38;;;5.26;100.00
46430;BME280;32131;53.454;-6.180;2023-01-29T01:07:45;102927.25;;;5.24;100.00
46430;BME280;32131;53.454;-6.180;2023-01-29T01:10:17;102928.16;;;5.24;100.00
46430;BME280;32131;53.454;-6.180;2023-01-29T01:12:52;102928.16;;;5.24;100.00
46430;BME280;32131;53.454;-6.180;2023-01-29T01:15:21;102923.81;;;5.23;100.00
46430;BME280;32131;53.454;-6.180;2023-01-29T01:17:53;102926.13;;;5.20;100.00
46430;BME280;32131;53.454;-6.180;2023-01-29T01:20:21;102922.56;;;5.18;100.00
46430;BME280;32131;53.454;-6.180;2023-01-29T01:22:50;102922.38;;;5.15;100.00
46430;BME280;32131;53.454;-6.180;2023-01-29T01:25:21;102918.03;;;5.14;100.00
46430;BME280;32131;53.454;-6.180;2023-01-29T01:27:51;102908.56;;;5.13;100.00
46430;BME280;32131;53.454;-6.180;2023-01-29T01:30:19;102906.66;;;5.10;100.00
46430;BME280;32131;53.454;-6.180;2023-01-29T01:32:48;102897.88;;;5.07;100.00
46430;BME280;32131;53.454;-6.180;2023-01-29T01:35:16;102898.22;;;4.99;100.00
46430;BME280;32131;53.454;-6.180;2023-01-29T01:37:44;102886.72;;;4.94;100.00
46430;BME280;32131;53.454;-6.180;2023-01-29T01:40:18;102889.63;;;4.87;100.00
46430;BME280;32131;53.454;-6.180;2023-01-29T01:42:48;102887.59;;;4.83;100.00
46430;BME280;32131;53.454;-6.180;2023-01-29T01:45:20;102887.94;;;4.76;100.00
46430;BME280;32131;53.454;-6.180;2023-01-29T01:47:51;102875.25;;;4.65;100.00
46430;BME280;32131;53.454;-6.180;2023-01-29T01:50:22;102877.91;;;4.55;100.00
46430;BME280;32131;53.454;-6.180;2023-01-29T01:52:54;102886.88;;;4.50;100.00
46430;BME280;32131;53.454;-6.180;2023-01-29T01:55:27;102882.78;;;4.52;100.00
46430;BME280;32131;53.454;-6.180;2023-01-29T01:58:02;102886.59;;;4.57;100.00
46430;BME280;32131;53.454;-6.180;2023-01-29T02:00:33;102886.03;;;4.61;100.00
46430;BME280;32131;53.454;-6.180;2023-01-29T02:03:01;102881.00;;;4.63;100.00
46430;BME280;32131;53.454;-6.180;2023-01-29T02:05:48;102886.25;;;4.64;100.00
46430;BME280;32131;53.454;-6.180;2023-01-29T02:08:38;102883.28;;;4.70;100.00
46430;BME280;32131;53.454;-6.180;2023-01-29T02:11:27;102887.16;;;4.77;100.00
46430;BME280;32131;53.454;-6.180;2023-01-29T02:13:56;102880.50;;;4.79;100.00
46430;BME280;32131;53.454;-6.180;2023-01-29T02:16:25;102880.94;;;4.85;100.00
46430;BME280;32131;53.454;-6.180;2023-01-29T02:18:53;102876.81;;;4.87;100.00
46430;BME280;32131;53.454;-6.180;2023-01-29T02:28:06;102859.91;;;4.89;100.00
46430;BME280;32131;53.454;-6.180;2023-01-29T02:30:41;102856.25;;;4.85;100.00
46430;BME280;32131;53.454;-6.180;2023-01-29T02:33:19;102859.13;;;4.78;100.00
46430;BME280;32131;53.454;-6.180;2023-01-29T02:35:58;102847.44;;;4.70;100.00
46430;BME280;32131;53.454;-6.180;2023-01-29T02:38:32;102848.22;;;4.57;100.00
46430;BME280;32131;53.454;-6.180;2023-01-29T02:41:05;102849.31;;;4.49;100.00
46430;BME280;32131;53.454;-6.180;2023-01-29T02:43:44;102842.84;;;4.54;100.00
46430;BME280;32131;53.454;-6.180;2023-01-29T02:46:24;102843.41;;;4.62;100.00
46430;BME280;32131;53.454;-6.180;2023-01-29T02:48:58;102839.53;;;4.67;100.00
46430;BME280;32131;53.454;-6.180;2023-01-29T02:51:35;102831.06;;;4.68;100.00
46430;BME280;32131;53.454;-6.180;2023-01-29T02:54:07;102823.50;;;4.69;100.00
46430;BME280;32131;53.454;-6.180;2023-01-29T02:56:41;102818.63;;;4.72;100.00
46430;BME280;32131;53.454;-6.180;2023-01-29T02:59:17;102808.47;;;4.74;100.00
46430;BME280;32131;53.454;-6.180;2023-01-29T03:01:51;102814.59;;;4.76;100.00
46430;BME280;32131;53.454;-6.180;2023-01-29T03:04:23;102805.38;;;4.78;100.00
46430;BME280;32131;53.454;-6.180;2023-01-29T03:06:57;102813.94;;;4.79;100.00
46430;BME280;32131;53.454;-6.180;2023-01-29T03:09:33;102809.94;;;4.82;100.00
46430;BME280;32131;53.454;-6.180;2023-01-29T03:12:05;102814.38;;;4.85;100.00
46430;BME280;32131;53.454;-6.180;2023-01-29T03:14:59;102807.69;;;4.87;100.00
46430;BME280;32131;53.454;-6.180;2023-01-29T03:17:42;102806.00;;;4.87;100.00
46430;BME280;32131;53.454;-6.180;2023-01-29T03:20:15;102806.16;;;4.89;100.00
46430;BME280;32131;53.454;-6.180;2023-01-29T03:22:48;102806.16;;;4.89;100.00
46430;BME280;32131;53.454;-6.180;2023-01-29T03:25:20;102812.13;;;4.90;100.00
46430;BME280;32131;53.454;-6.180;2023-01-29T03:28:09;102811.25;;;4.89;100.00
46430;BME280;32131;53.454;-6.180;2023-01-29T03:31:02;102803.59;;;4.89;100.00
46430;BME280;32131;53.454;-6.180;2023-01-29T03:33:50;102811.03;;;4.86;100.00
46430;BME280;32131;53.454;-6.180;2023-01-29T03:36:22;102799.00;;;4.85;100.00
46430;BME280;32131;53.454;-6.180;2023-01-29T03:38:53;102797.22;;;4.84;100.00
46430;BME280;32131;53.454;-6.180;2023-01-29T03:41:25;102792.09;;;4.84;100.00
46430;BME280;32131;53.454;-6.180;2023-01-29T03:44:05;102786.97;;;4.84;100.00
46430;BME280;32131;53.454;-6.180;2023-01-29T03:46:42;102777.66;;;4.84;100.00
46430;BME280;32131;53.454;-6.180;2023-01-29T03:49:18;102776.97;;;4.87;100.00
46430;BME280;32131;53.454;-6.180;2023-01-29T03:51:54;102775.19;;;4.86;100.00
46430;BME280;32131;53.454;-6.180;2023-01-29T03:54:27;102770.06;;;4.86;100.00
46430;BME280;32131;53.454;-6.180;2023-01-29T03:57:02;102764.72;;;4.83;100.00
46430;BME280;32131;53.454;-6.180;2023-01-29T03:59:36;102754.06;;;4.77;100.00
46430;BME280;32131;53.454;-6.180;2023-01-29T04:02:11;102754.41;;;4.69;100.00
46430;BME280;32131;53.454;-6.180;2023-01-29T04:04:42;102743.59;;;4.62;100.00
46430;BME280;32131;53.454;-6.180;2023-01-29T04:07:14;102735.38;;;4.54;100.00
46430;BME280;32131;53.454;-6.180;2023-01-29T04:09:45;102746.31;;;4.39;100.00
46430;BME280;32131;53.454;-6.180;2023-01-29T04:12:19;102732.25;;;4.22;100.00
46430;BME280;32131;53.454;-6.180;2023-01-29T04:14:51;102734.03;;;4.12;100.00
46430;BME280;32131;53.454;-6.180;2023-01-29T04:17:26;102734.91;;;4.00;100.00
46430;BME280;32131;53.454;-6.180;2023-01-29T04:19:59;102723.13;;;3.90;100.00
46430;BME280;32131;53.454;-6.180;2023-01-29T04:22:31;102731.00;;;3.82;100.00
46430;BME280;32131;53.454;-6.180;2023-01-29T04:25:02;102733.22;;;3.77;100.00
46430;BME280;32131;53.454;-6.180;2023-01-29T04:27:42;102714.84;;;3.71;100.00
46430;BME280;32131;53.454;-6.180;2023-01-29T04:30:22;102728.06;;;3.65;100.00
46430;BME280;32131;53.454;-6.180;2023-01-29T04:33:02;102720.81;;;3.59;100.00
46430;BME280;32131;53.454;-6.180;2023-01-29T04:35:34;102716.13;;;3.54;100.00
46430;BME280;32131;53.454;-6.180;2023-01-29T04:38:17;102713.88;;;3.46;100.00
46430;BME280;32131;53.454;-6.180;2023-01-29T04:40:58;102713.66;;;3.43;100.00
46430;BME280;32131;53.454;-6.180;2023-01-29T04:43:41;102705.75;;;3.40;100.00
46430;BME280;32131;53.454;-6.180;2023-01-29T04:46:15;102708.06;;;3.37;100.00
46430;BME280;32131;53.454;-6.180;2023-01-29T04:48:58;102703.50;;;3.33;100.00
46430;BME280;32131;53.454;-6.180;2023-01-29T04:51:34;102701.59;;;3.30;100.00
46430;BME280;32131;53.454;-6.180;2023-01-29T04:54:08;102697.25;;;3.29;100.00
46430;BME280;32131;53.454;-6.180;2023-01-29T04:56:43;102697.16;;;3.28;100.00
46430;BME280;32131;53.454;-6.180;2023-01-29T04:59:18;102709.94;;;3.28;100.00
46430;BME280;32131;53.454;-6.180;2023-01-29T05:01:48;102696.25;;;3.27;100.00
46430;BME280;32131;53.454;-6.180;2023-01-29T05:04:19;102695.63;;;3.30;100.00
46430;BME280;32131;53.454;-6.180;2023-01-29T05:06:48;102697.16;;;3.28;100.00
46430;BME280;32131;53.454;-6.180;2023-01-29T05:09:17;102694.50;;;3.26;100.00
46430;BME280;32131;53.454;-6.180;2023-01-29T05:11:47;102692.81;;;3.27;100.00
46430;BME280;32131;53.454;-6.180;2023-01-29T05:14:18;102694.50;;;3.26;100.00
46430;BME280;32131;53.454;-6.180;2023-01-29T05:16:49;102692.72;;;3.25;100.00
46430;BME280;32131;53.454;-6.180;2023-01-29T05:19:19;102684.16;;;3.25;100.00
46430;BME280;32131;53.454;-6.180;2023-01-29T05:21:48;102685.06;;;3.25;100.00
46430;BME280;32131;53.454;-6.180;2023-01-29T05:24:19;102678.06;;;3.23;100.00
46430;BME280;32131;53.454;-6.180;2023-01-29T05:26:51;102683.28;;;3.24;100.00
46430;BME280;32131;53.454;-6.180;2023-01-29T05:29:38;102681.38;;;3.22;100.00
46430;BME280;32131;53.454;-6.180;2023-01-29T05:32:06;102678.06;;;3.23;100.00
46430;BME280;32131;53.454;-6.180;2023-01-29T05:34:36;102673.94;;;3.25;100.00
46430;BME280;32131;53.454;-6.180;2023-01-29T05:37:04;102673.94;;;3.25;100.00
46430;BME280;32131;53.454;-6.180;2023-01-29T05:39:32;102672.63;;;3.30;100.00
46430;BME280;32131;53.454;-6.180;2023-01-29T05:42:01;102667.38;;;3.28;100.00
46430;BME280;32131;53.454;-6.180;2023-01-29T05:44:29;102665.59;;;3.27;100.00
46430;BME280;32131;53.454;-6.180;2023-01-29T05:46:57;102654.75;;;3.30;100.00
46430;BME280;32131;53.454;-6.180;2023-01-29T05:49:25;102648.75;;;3.29;100.00
46430;BME280;32131;53.454;-6.180;2023-01-29T05:51:54;102649.50;;;3.28;100.00
46430;BME280;32131;53.454;-6.180;2023-01-29T05:54:22;102653.19;;;3.32;100.00
46430;BME280;32131;53.454;-6.180;2023-01-29T05:56:50;102652.66;;;3.36;100.00
46430;BME280;32131;53.454;-6.180;2023-01-29T05:59:18;102648.91;;;3.43;100.00
46430;BME280;32131;53.454;-6.180;2023-01-29T06:01:47;102651.25;;;3.52;100.00
46430;BME280;32131;53.454;-6.180;2023-01-29T06:04:15;102659.28;;;3.68;100.00
46430;BME280;32131;53.454;-6.180;2023-01-29T06:06:43;102656.75;;;3.80;100.00
46430;BME280;32131;53.454;-6.180;2023-01-29T06:09:12;102651.31;;;3.87;100.00
46430;BME280;32131;53.454;-6.180;2023-01-29T06:11:40;102656.22;;;3.96;100.00
46430;BME280;32131;53.454;-6.180;2023-01-29T06:14:08;102652.47;;;4.03;100.00
46430;BME280;32131;53.454;-6.180;2023-01-29T06:16:36;102649.09;;;4.04;100.00
46430;BME280;32131;53.454;-6.180;2023-01-29T06:19:04;102651.22;;;4.09;100.00
46430;BME280;32131;53.454;-6.180;2023-01-29T06:21:32;102641.41;;;4.16;100.00
46430;BME280;32131;53.454;-6.180;2023-01-29T06:24:00;102640.66;;;4.17;100.00
46430;BME280;32131;53.454;-6.180;2023-01-29T06:26:30;102638.88;;;4.16;100.00
46430;BME280;32131;53.454;-6.180;2023-01-29T06:28:58;102637.31;;;4.18;100.00
46430;BME280;32131;53.454;-6.180;2023-01-29T06:31:28;102640.44;;;4.14;100.00
46430;BME280;32131;53.454;-6.180;2023-01-29T06:34:05;102640.44;;;4.14;100.00
46430;BME280;32131;53.454;-6.180;2023-01-29T06:36:33;102638.09;;;4.17;100.00
46430;BME280;32131;53.454;-6.180;2023-01-29T06:39:02;102632.88;;;4.15;100.00
46430;BME280;32131;53.454;-6.180;2023-01-29T06:41:32;102639.78;;;4.16;100.00
46430;BME280;32131;53.454;-6.180;2023-01-29T06:44:00;102640.66;;;4.17;100.00
46430;BME280;32131;53.454;-6.180;2023-01-29T06:46:28;102642.09;;;4.13;100.00
46430;BME280;32131;53.454;-6.180;2023-01-29T06:48:57;102624.88;;;4.11;100.00
46430;BME280;32131;53.454;-6.180;2023-01-29T06:51:26;102630.09;;;4.12;100.00
46430;BME280;32131;53.454;-6.180;2023-01-29T06:53:54;102624.97;;;4.12;100.00
46430;BME280;32131;53.454;-6.180;2023-01-29T06:56:22;102625.78;;;4.11;100.00
46430;BME280;32131;53.454;-6.180;2023-01-29T06:58:52;102624.09;;;4.12;100.00
46430;BME280;32131;53.454;-6.180;2023-01-29T07:01:20;102618.09;;;4.11;100.00
46430;BME280;32131;53.454;-6.180;2023-01-29T07:04:01;102625.88;;;4.13;100.00
46430;BME280;32131;53.454;-6.180;2023-01-29T07:06:30;102625.44;;;4.06;100.00
46430;BME280;32131;53.454;-6.180;2023-01-29T07:08:58;102625.53;;;4.08;100.00
46430;BME280;32131;53.454;-6.180;2023-01-29T07:11:26;102613.88;;;4.12;100.00
46430;BME280;32131;53.454;-6.180;2023-01-29T07:13:56;102608.09;;;4.14;100.00
46430;BME280;32131;53.454;-6.180;2023-01-29T07:16:24;102607.31;;;4.15;100.00
46430;BME280;32131;53.454;-6.180;2023-01-29T07:18:52;102595.63;;;4.19;100.00
46430;BME280;32131;53.454;-6.180;2023-01-29T07:21:21;102600.66;;;4.17;100.00
46430;BME280;32131;53.454;-6.180;2023-01-29T07:23:49;102591.09;;;4.15;100.00
46430;BME280;32131;53.454;-6.180;2023-01-29T07:26:17;102594.53;;;4.15;100.00
46430;BME280;32131;53.454;-6.180;2023-01-29T07:28:45;102601.66;;;4.19;100.00
46430;BME280;32131;53.454;-6.180;2023-01-29T07:31:14;102595.09;;;4.23;100.00
46430;BME280;32131;53.454;-6.180;2023-01-29T07:33:43;102590.16;;;4.26;100.00
46430;BME280;32131;53.454;-6.180;2023-01-29T07:36:12;102593.72;;;4.28;100.00
46430;BME280;32131;53.454;-6.180;2023-01-29T07:38:40;102592.53;;;4.23;100.00
46430;BME280;32131;53.454;-6.180;2023-01-29T07:41:09;102588.19;;;4.22;100.00
46430;BME280;32131;53.454;-6.180;2023-01-29T07:43:38;102584.84;;;4.23;100.00
46430;BME280;32131;53.454;-6.180;2023-01-29T07:46:06;102579.06;;;4.25;100.00
46430;BME280;32131;53.454;-6.180;2023-01-29T07:48:36;102572.25;;;4.26;100.00
46430;BME280;32131;53.454;-6.180;2023-01-29T07:51:05;102572.94;;;4.23;100.00
46430;BME280;32131;53.454;-6.180;2023-01-29T07:53:33;102572.63;;;4.19;100.00
46430;BME280;32131;53.454;-6.180;2023-01-29T07:56:01;102574.84;;;4.14;100.00
46430;BME280;32131;53.454;-6.180;2023-01-29T07:58:30;102574.75;;;4.13;100.00
46430;BME280;32131;53.454;-6.180;2023-01-29T08:01:04;102572.38;;;4.16;100.00
46430;BME280;32131;53.454;-6.180;2023-01-29T08:03:32;102566.97;;;4.11;100.00
46430;BME280;32131;53.454;-6.180;2023-01-29T08:06:02;102558.84;;;4.05;100.00
46430;BME280;32131;53.454;-6.180;2023-01-29T08:08:30;102554.31;;;4.01;100.00
46430;BME280;32131;53.454;-6.180;2023-01-29T08:11:00;102560.88;;;3.97;100.00
46430;BME280;32131;53.454;-6.180;2023-01-29T08:13:28;102573.66;;;3.97;100.00
46430;BME280;32131;53.454;-6.180;2023-01-29T08:15:58;102571.09;;;3.97;100.00
46430;BME280;32131;53.454;-6.180;2023-01-29T08:18:28;102578.53;;;4.06;100.00
46430;BME280;32131;53.454;-6.180;2023-01-29T08:21:01;102561.06;;;4.12;100.00
46430;BME280;32131;53.454;-6.180;2023-01-29T08:23:30;102555.91;;;4.24;100.00
46430;BME280;32131;53.454;-6.180;2023-01-29T08:25:58;102563.69;;;4.37;100.00
46430;BME280;32131;53.454;-6.180;2023-01-29T08:28:26;102567.75;;;4.47;100.00
46430;BME280;32131;53.454;-6.180;2023-01-29T08:30:56;102572.53;;;4.54;100.00
46430;BME280;32131;53.454;-6.180;2023-01-29T08:33:24;102564.38;;;4.60;100.00
46430;BME280;32131;53.454;-6.180;2023-01-29T08:36:06;102576.03;;;4.68;100.00
46430;BME280;32131;53.454;-6.180;2023-01-29T08:38:35;102583.34;;;4.76;100.00
46430;BME280;32131;53.454;-6.180;2023-01-29T08:41:03;102576.13;;;4.82;100.00
46430;BME280;32131;53.454;-6.180;2023-01-29T08:43:31;102573.97;;;4.88;100.00
46430;BME280;32131;53.454;-6.180;2023-01-29T08:46:02;102585.41;;;4.93;100.00
46430;BME280;32131;53.454;-6.180;2023-01-29T08:48:30;102585.03;;;5.00;100.00
46430;BME280;32131;53.454;-6.180;2023-01-29T08:50:59;102591.38;;;5.06;100.00
46430;BME280;32131;53.454;-6.180;2023-01-29T08:53:29;102592.56;;;5.11;100.00
46430;BME280;32131;53.454;-6.180;2023-01-29T08:55:57;102584.31;;;5.15;100.00
46430;BME280;32131;53.454;-6.180;2023-01-29T08:58:25;102589.63;;;5.18;100.00
46430;BME280;32131;53.454;-6.180;2023-01-29T09:00:53;102586.50;;;5.22;100.00
46430;BME280;32131;53.454;-6.180;2023-01-29T09:03:22;102578.91;;;5.24;100.00
46430;BME280;32131;53.454;-6.180;2023-01-29T09:05:50;102580.09;;;5.29;100.00
46430;BME280;32131;53.454;-6.180;2023-01-29T09:08:18;102579.50;;;5.33;100.00
46430;BME280;32131;53.454;-6.180;2023-01-29T09:10:47;102581.50;;;5.37;100.00
46430;BME280;32131;53.454;-6.180;2023-01-29T09:13:15;102580.13;;;5.42;100.00
46430;BME280;32131;53.454;-6.180;2023-01-29T09:15:43;102574.53;;;5.48;100.00
46430;BME280;32131;53.454;-6.180;2023-01-29T09:18:11;102574.91;;;5.54;100.00
46430;BME280;32131;53.454;-6.180;2023-01-29T09:20:39;102571.97;;;5.61;100.00
46430;BME280;32131;53.454;-6.180;2023-01-29T09:23:08;102566.66;;;5.72;100.00
46430;BME280;32131;53.454;-6.180;2023-01-29T09:25:36;102574.94;;;5.81;100.00
46430;BME280;32131;53.454;-6.180;2023-01-29T09:28:06;102567.91;;;5.92;100.00
46430;BME280;32131;53.454;-6.180;2023-01-29T09:30:34;102572.78;;;6.01;100.00
46430;BME280;32131;53.454;-6.180;2023-01-29T09:33:04;102575.63;;;6.05;100.00
46430;BME280;32131;53.454;-6.180;2023-01-29T09:35:32;102580.25;;;6.11;100.00
46430;BME280;32131;53.454;-6.180;2023-01-29T09:38:00;102571.19;;;6.16;100.00
46430;BME280;32131;53.454;-6.180;2023-01-29T09:40:32;102557.84;;;6.22;100.00
46430;BME280;32131;53.454;-6.180;2023-01-29T09:43:09;102561.88;;;6.32;100.00
46430;BME280;32131;53.454;-6.180;2023-01-29T09:45:48;102557.03;;;6.36;100.00
46430;BME280;32131;53.454;-6.180;2023-01-29T09:48:17;102564.13;;;6.40;100.00
46430;BME280;32131;53.454;-6.180;2023-01-29T09:50:49;102550.50;;;6.41;100.00
46430;BME280;32131;53.454;-6.180;2023-01-29T09:53:20;102549.81;;;6.44;100.00
46430;BME280;32131;53.454;-6.180;2023-01-29T09:55:55;102561.25;;;6.49;100.00
46430;BME280;32131;53.454;-6.180;2023-01-29T09:58:30;102550.72;;;6.59;100.00
46430;BME280;32131;53.454;-6.180;2023-01-29T10:01:06;102550.50;;;6.70;100.00
46430;BME280;32131;53.454;-6.180;2023-01-29T10:03:54;102556.63;;;6.72;100.00
46430;BME280;32131;53.454;-6.180;2023-01-29T10:06:44;102577.59;;;6.65;100.00
46430;BME280;32131;53.454;-6.180;2023-01-29T10:09:44;102559.78;;;6.68;100.00
46430;BME280;32131;53.454;-6.180;2023-01-29T10:12:23;102557.50;;;6.72;100.00
46430;BME280;32131;53.454;-6.180;2023-01-29T10:15:04;102550.88;;;6.76;100.00
46430;BME280;32131;53.454;-6.180;2023-01-29T10:17:48;102552.03;;;6.81;100.00
46430;BME280;32131;53.454;-6.180;2023-01-29T10:20:42;102556.03;;;6.91;100.00
46430;BME280;32131;53.454;-6.180;2023-01-29T10:23:19;102552.59;;;7.05;99.88
46430;BME280;32131;53.454;-6.180;2023-01-29T10:25:48;102551.63;;;7.18;99.28
46430;BME280;32131;53.454;-6.180;2023-01-29T10:28:18;102538.06;;;7.36;98.97
46430;BME280;32131;53.454;-6.180;2023-01-29T10:30:50;102534.78;;;7.53;98.37
46430;BME280;32131;53.454;-6.180;2023-01-29T10:33:25;102542.59;;;7.55;97.35
46430;BME280;32131;53.454;-6.180;2023-01-29T10:36:03;102541.44;;;7.65;97.40
46430;BME280;32131;53.454;-6.180;2023-01-29T10:38:39;102529.81;;;7.71;96.98
46430;BME280;32131;53.454;-6.180;2023-01-29T10:41:39;102532.38;;;7.71;96.77
46430;BME280;32131;53.454;-6.180;2023-01-29T10:44:22;102532.13;;;7.67;96.45
46430;BME280;32131;53.454;-6.180;2023-01-29T10:47:13;102533.91;;;7.68;96.62
46430;BME280;32131;53.454;-6.180;2023-01-29T10:49:59;102526.00;;;7.65;97.05
46430;BME280;32131;53.454;-6.180;2023-01-29T10:52:40;102530.44;;;7.67;97.24
46430;BME280;32131;53.454;-6.180;2023-01-29T10:55:22;102522.78;;;7.69;97.26
46430;BME280;32131;53.454;-6.180;2023-01-29T10:58:01;102520.94;;;7.66;97.21
46430;BME280;32131;53.454;-6.180;2023-01-29T11:00:34;102517.50;;;7.66;97.07
46430;BME280;32131;53.454;-6.180;2023-01-29T11:03:14;102514.13;;;7.67;97.12
46430;BME280;32131;53.454;-6.180;2023-01-29T11:05:57;102508.34;;;7.71;97.18
46430;BME280;32131;53.454;-6.180;2023-01-29T11:08:32;102508.81;;;7.64;97.38
46430;BME280;32131;53.454;-6.180;2023-01-29T11:11:06;102512.25;;;7.64;97.61
46430;BME280;32131;53.454;-6.180;2023-01-29T11:13:40;102513.63;;;7.58;97.79
46430;BME280;32131;53.454;-6.180;2023-01-29T11:16:09;102505.91;;;7.58;97.92
46430;BME280;32131;53.454;-6.180;2023-01-29T11:18:55;102493.38;;;7.64;98.12
46430;BME280;32131;53.454;-6.180;2023-01-29T11:21:25;102487.25;;;7.62;97.93
46430;BME280;32131;53.454;-6.180;2023-01-29T11:24:05;102478.81;;;7.64;98.19
46430;BME280;32131;53.454;-6.180;2023-01-29T11:26:36;102478.47;;;7.73;97.90
46430;BME280;32131;53.454;-6.180;2023-01-29T11:29:28;102483.44;;;7.70;97.83
46430;BME280;32131;53.454;-6.180;2023-01-29T11:31:59;102482.56;;;7.69;98.01
46430;BME280;32131;53.454;-6.180;2023-01-29T11:34:29;102474.78;;;7.68;98.00
46430;BME280;32131;53.454;-6.180;2023-01-29T11:36:59;102468.66;;;7.66;98.43
46430;BME280;32131;53.454;-6.180;2023-01-29T11:39:30;102463.41;;;7.64;98.58
46430;BME280;32131;53.454;-6.180;2023-01-29T11:42:00;102454.66;;;7.77;98.41
46430;BME280;32131;53.454;-6.180;2023-01-29T11:44:30;102454.16;;;8.16;97.56
46430;BME280;32131;53.454;-6.180;2023-01-29T11:47:15;102451.69;;;8.51;95.89
46430;BME280;32131;53.454;-6.180;2023-01-29T11:49:48;102440.72;;;8.55;95.22
46430;BME280;32131;53.454;-6.180;2023-01-29T11:52:19;102426.81;;;8.51;94.99
46430;BME280;32131;53.454;-6.180;2023-01-29T11:54:51;102424.72;;;8.44;95.32
46430;BME280;32131;53.454;-6.180;2023-01-29T11:57:31;102427.06;;;8.56;95.24
46430;BME280;32131;53.454;-6.180;2023-01-29T12:00:02;102403.34;;;8.79;94.23
46430;BME280;32131;53.454;-6.180;2023-01-29T12:02:35;102390.03;;;9.06;93.15
46430;BME280;32131;53.454;-6.180;2023-01-29T12:05:13;102391.78;;;9.25;92.52
46430;BME280;32131;53.454;-6.180;2023-01-29T12:07:44;102392.16;;;9.33;92.22
46430;BME280;32131;53.454;-6.180;2023-01-29T12:10:33;102382.13;;;9.39;91.92
46430;BME280;32131;53.454;-6.180;2023-01-29T12:13:23;102374.66;;;9.46;91.49
46430;BME280;32131;53.454;-6.180;2023-01-29T12:16:09;102370.53;;;9.49;91.06
46430;BME280;32131;53.454;-6.180;2023-01-29T12:18:41;102369.41;;;9.42;90.75
46430;BME280;32131;53.454;-6.180;2023-01-29T12:21:16;102354.59;;;9.38;91.13
46430;BME280;32131;53.454;-6.180;2023-01-29T12:23:51;102342.38;;;9.34;91.36
46430;BME280;32131;53.454;-6.180;2023-01-29T12:26:26;102341.13;;;9.26;91.59
46430;BME280;32131;53.454;-6.180;2023-01-29T12:29:09;102327.22;;;9.22;91.54
46430;BME280;32131;53.454;-6.180;2023-01-29T12:31:45;102316.28;;;9.28;91.75
46430;BME280;32131;53.454;-6.180;2023-01-29T12:34:21;102312.91;;;9.29;91.65
46430;BME280;32131;53.454;-6.180;2023-01-29T12:36:55;102305.47;;;9.35;91.57
46430;BME280;32131;53.454;-6.180;2023-01-29T12:39:26;102304.78;;;9.39;91.51
46430;BME280;32131;53.454;-6.180;2023-01-29T12:41:57;102308.44;;;9.44;91.46
46430;BME280;32131;53.454;-6.180;2023-01-29T12:44:32;102301.66;;;9.47;91.11
46430;BME280;32131;53.454;-6.180;2023-01-29T12:47:14;102287.38;;;9.53;91.04
46430;BME280;32131;53.454;-6.180;2023-01-29T12:49:51;102301.69;;;9.66;90.99
46430;BME280;32131;53.454;-6.180;2023-01-29T12:52:25;102282.22;;;9.73;90.53
46430;BME280;32131;53.454;-6.180;2023-01-29T12:54:59;102280.75;;;9.80;90.68
46430;BME280;32131;53.454;-6.180;2023-01-29T12:57:36;102276.00;;;9.89;90.62
46430;BME280;32131;53.454;-6.180;2023-01-29T13:00:11;102269.00;;;9.86;90.32
46430;BME280;32131;53.454;-6.180;2023-01-29T13:02:47;102255.34;;;9.89;90.47
46430;BME280;32131;53.454;-6.180;2023-01-29T13:05:20;102261.63;;;9.94;90.69
46430;BME280;32131;53.454;-6.180;2023-01-29T13:07:55;102242.25;;;9.84;90.86
46430;BME280;32131;53.454;-6.180;2023-01-29T13:10:28;102241.41;;;9.64;91.61
46430;BME280;32131;53.454;-6.180;2023-01-29T13:13:00;102239.19;;;9.52;92.60
46430;BME280;32131;53.454;-6.180;2023-01-29T13:15:33;102223.03;;;9.56;92.91
46430;BME280;32131;53.454;-6.180;2023-01-29T13:18:22;102224.16;;;9.63;93.04
46430;BME280;32131;53.454;-6.180;2023-01-29T13:20:58;102212.53;;;9.52;93.66